sensor_id;sensor_type;location;lat;lon;timestamp;pressure;altitude;pressure_sealevel;temperature;humidity
48796;BME280;34607;48.520;-1.330;2022-10-31T08:10:41;99961.97;;;12.17;100.00
48796;BME280;34607;48.520;-1.330;2022-10-31T08:13:09;99953.34;;;12.25;100.00
48796;BME280;34607;48.520;-1.330;2022-10-31T08:15:41;99938.66;;;12.30;100.00
48796;BME280;34607;48.520;-1.330;2022-10-31T08:18:12;99931.72;;;12.32;100.00
48796;BME280;34607;48.520;-1.330;2022-10-31T08:20:40;99947.34;;;12.41;100.00
48796;BME280;34607;48.520;-1.330;2022-10-31T08:23:08;99948.22;;;12.46;100.00
48796;BME280;34607;48.520;-1.330;2022-10-31T08:25:37;99935.25;;;12.51;100.00
48796;BME280;34607;48.520;-1.330;2022-10-31T08:28:06;99929.19;;;12.57;100.00
48796;BME280;34607;48.520;-1.330;2022-10-31T08:30:39;99916.22;;;12.61;100.00
48796;BME280;34607;48.520;-1.330;2022-10-31T08:33:29;99913.59;;;12.63;100.00
48796;BME280;34607;48.520;-1.330;2022-10-31T08:36:15;99917.94;;;12.70;100.00
48796;BME280;34607;48.520;-1.330;2022-10-31T08:38:47;99875.50;;;12.55;100.00
48796;BME280;34607;48.520;-1.330;2022-10-31T08:41:16;99901.50;;;12.82;100.00
48796;BME280;34607;48.520;-1.330;2022-10-31T08:43:44;99889.34;;;12.90;100.00
48796;BME280;34607;48.520;-1.330;2022-10-31T08:46:12;99881.56;;;12.96;100.00
48796;BME280;34607;48.520;-1.330;2022-10-31T08:48:41;99877.22;;;13.04;100.00
48796;BME280;34607;48.520;-1.330;2022-10-31T08:51:09;99867.69;;;13.05;100.00
48796;BME280;34607;48.520;-1.330;2022-10-31T08:53:37;99869.41;;;13.17;100.00
48796;BME280;34607;48.520;-1.330;2022-10-31T08:56:26;99861.56;;;13.24;100.00
48796;BME280;34607;48.520;-1.330;2022-10-31T08:58:55;99855.50;;;13.25;100.00
48796;BME280;34607;48.520;-1.330;2022-10-31T09:01:51;99851.16;;;13.27;100.00
48796;BME280;34607;48.520;-1.330;2022-10-31T09:04:18;99851.16;;;13.38;100.00
48796;BME280;34607;48.520;-1.330;2022-10-31T09:06:46;99849.41;;;13.48;100.00
48796;BME280;34607;48.520;-1.330;2022-10-31T09:09:13;99826.03;;;13.42;100.00
48796;BME280;34607;48.520;-1.330;2022-10-31T09:11:40;99838.97;;;13.57;100.00
48796;BME280;34607;48.520;-1.330;2022-10-31T09:14:11;99818.13;;;13.65;100.00
48796;BME280;34607;48.520;-1.330;2022-10-31T09:16:38;99824.19;;;13.64;100.00
48796;BME280;34607;48.520;-1.330;2022-10-31T09:19:12;99819.84;;;13.67;100.00
48796;BME280;34607;48.520;-1.330;2022-10-31T09:21:41;99818.94;;;13.70;100.00
48796;BME280;34607;48.520;-1.330;2022-10-31T09:24:08;99822.41;;;13.72;100.00
48796;BME280;34607;48.520;-1.330;2022-10-31T09:26:36;99811.13;;;13.73;100.00
48796;BME280;34607;48.520;-1.330;2022-10-31T09:29:14;99809.38;;;13.74;100.00
48796;BME280;34607;48.520;-1.330;2022-10-31T09:31:43;99801.56;;;13.77;100.00
48796;BME280;34607;48.520;-1.330;2022-10-31T09:34:27;99793.00;;;13.59;100.00
48796;BME280;34607;48.520;-1.330;2022-10-31T09:37:23;99779.91;;;13.75;100.00
48796;BME280;34607;48.520;-1.330;2022-10-31T09:39:51;99776.38;;;13.83;100.00
48796;BME280;34607;48.520;-1.330;2022-10-31T09:42:47;99762.47;;;13.84;100.00
48796;BME280;34607;48.520;-1.330;2022-10-31T09:45:26;99754.66;;;13.91;100.00
48796;BME280;34607;48.520;-1.330;2022-10-31T09:48:19;99747.66;;;13.96;100.00
48796;BME280;34607;48.520;-1.330;2022-10-31T09:51:16;99746.75;;;14.01;100.00
48796;BME280;34607;48.520;-1.330;2022-10-31T09:54:02;99743.25;;;14.09;100.00
48796;BME280;34607;48.520;-1.330;2022-10-31T09:56:32;99730.25;;;14.02;100.00
48796;BME280;34607;48.520;-1.330;2022-10-31T09:59:02;99741.50;;;14.11;100.00
48796;BME280;34607;48.520;-1.330;2022-10-31T10:01:40;99734.59;;;14.03;100.00
48796;BME280;34607;48.520;-1.330;2022-10-31T10:04:34;99738.06;;;14.05;100.00
48796;BME280;34607;48.520;-1.330;2022-10-31T10:07:16;99712.91;;;14.00;100.00
48796;BME280;34607;48.520;-1.330;2022-10-31T10:09:46;99691.22;;;14.04;100.00
48796;BME280;34607;48.520;-1.330;2022-10-31T10:12:42;99706.56;;;14.32;100.00
48796;BME280;34607;48.520;-1.330;2022-10-31T10:15:37;99718.66;;;14.40;100.00
48796;BME280;34607;48.520;-1.330;2022-10-31T10:18:16;99731.63;;;14.48;100.00
48796;BME280;34607;48.520;-1.330;2022-10-31T10:20:56;99729.81;;;14.53;100.00
48796;BME280;34607;48.520;-1.330;2022-10-31T10:23:45;99740.28;;;14.47;100.00
48796;BME280;34607;48.520;-1.330;2022-10-31T10:26:18;99733.34;;;14.46;100.00
48796;BME280;34607;48.520;-1.330;2022-10-31T10:28:49;99738.59;;;14.43;100.00
48796;BME280;34607;48.520;-1.330;2022-10-31T10:31:23;99729.06;;;14.40;100.00
48796;BME280;34607;48.520;-1.330;2022-10-31T10:34:01;99702.34;;;14.20;100.00
48796;BME280;34607;48.520;-1.330;2022-10-31T10:36:35;99716.97;;;14.33;100.00
48796;BME280;34607;48.520;-1.330;2022-10-31T10:39:09;99716.97;;;14.36;100.00
48796;BME280;34607;48.520;-1.330;2022-10-31T10:41:42;99716.97;;;14.36;100.00
48796;BME280;34607;48.520;-1.330;2022-10-31T10:44:11;99701.38;;;14.30;100.00
48796;BME280;34607;48.520;-1.330;2022-10-31T10:46:41;99709.13;;;14.39;100.00
48796;BME280;34607;48.520;-1.330;2022-10-31T10:49:32;99688.31;;;14.36;100.00
48796;BME280;34607;48.520;-1.330;2022-10-31T10:52:06;99694.38;;;14.38;100.00
48796;BME280;34607;48.520;-1.330;2022-10-31T10:54:42;99690.09;;;14.33;100.00
48796;BME280;34607;48.520;-1.330;2022-10-31T10:57:22;99681.44;;;14.28;100.00
48796;BME280;34607;48.520;-1.330;2022-10-31T10:59:53;99675.38;;;14.26;100.00
48796;BME280;34607;48.520;-1.330;2022-10-31T11:02:24;99667.59;;;14.24;100.00
48796;BME280;34607;48.520;-1.330;2022-10-31T11:04:54;99651.16;;;14.19;100.00
48796;BME280;34607;48.520;-1.330;2022-10-31T11:07:21;99639.78;;;14.28;100.00
48796;BME280;34607;48.520;-1.330;2022-10-31T11:09:48;99641.28;;;14.49;100.00
48796;BME280;34607;48.520;-1.330;2022-10-31T11:12:20;99629.75;;;14.71;100.00
48796;BME280;34607;48.520;-1.330;2022-10-31T11:14:50;99625.28;;;14.83;100.00
48796;BME280;34607;48.520;-1.330;2022-10-31T11:17:24;99607.03;;;14.84;100.00
48796;BME280;34607;48.520;-1.330;2022-10-31T11:20:16;99606.22;;;14.81;100.00
48796;BME280;34607;48.520;-1.330;2022-10-31T11:22:48;99604.31;;;14.90;100.00
48796;BME280;34607;48.520;-1.330;2022-10-31T11:25:22;99597.22;;;15.03;100.00
48796;BME280;34607;48.520;-1.330;2022-10-31T11:27:58;99580.22;;;15.33;100.00
48796;BME280;34607;48.520;-1.330;2022-10-31T11:30:26;99583.44;;;15.51;100.00
48796;BME280;34607;48.520;-1.330;2022-10-31T11:32:54;99567.84;;;15.48;100.00
48796;BME280;34607;48.520;-1.330;2022-10-31T11:35:24;99551.09;;;15.61;100.00
48796;BME280;34607;48.520;-1.330;2022-10-31T11:37:54;99538.88;;;15.63;100.00
48796;BME280;34607;48.520;-1.330;2022-10-31T11:40:25;99536.06;;;15.77;100.00
48796;BME280;34607;48.520;-1.330;2022-10-31T11:42:55;99541.28;;;15.76;100.00
48796;BME280;34607;48.520;-1.330;2022-10-31T11:45:31;99536.19;;;15.68;100.00
48796;BME280;34607;48.520;-1.330;2022-10-31T11:48:00;99526.59;;;15.70;100.00
48796;BME280;34607;48.520;-1.330;2022-10-31T11:50:34;99521.38;;;15.68;100.00
48796;BME280;34607;48.520;-1.330;2022-10-31T11:53:03;99512.44;;;15.83;100.00
48796;BME280;34607;48.520;-1.330;2022-10-31T11:55:33;99513.81;;;16.03;100.00
48796;BME280;34607;48.520;-1.330;2022-10-31T11:58:00;99511.13;;;16.07;100.00
48796;BME280;34607;48.520;-1.330;2022-10-31T12:00:29;99485.38;;;15.87;100.00
48796;BME280;34607;48.520;-1.330;2022-10-31T12:03:20;99506.34;;;15.83;100.00
48796;BME280;34607;48.520;-1.330;2022-10-31T12:05:58;99471.88;;;15.64;100.00
48796;BME280;34607;48.520;-1.330;2022-10-31T12:08:30;99480.75;;;15.53;100.00
48796;BME280;34607;48.520;-1.330;2022-10-31T12:11:02;99478.94;;;15.59;100.00
48796;BME280;34607;48.520;-1.330;2022-10-31T12:13:34;99480.75;;;15.55;100.00
48796;BME280;34607;48.520;-1.330;2022-10-31T12:16:11;99479.19;;;15.43;100.00
48796;BME280;34607;48.520;-1.330;2022-10-31T12:18:56;99460.03;;;15.46;100.00
48796;BME280;34607;48.520;-1.330;2022-10-31T12:21:40;99455.72;;;15.43;100.00
48796;BME280;34607;48.520;-1.330;2022-10-31T12:24:28;99458.31;;;15.45;100.00
48796;BME280;34607;48.520;-1.330;2022-10-31T12:27:06;99458.28;;;15.46;100.00
48796;BME280;34607;48.520;-1.330;2022-10-31T12:29:48;99446.06;;;15.48;100.00
48796;BME280;34607;48.520;-1.330;2022-10-31T12:32:28;99440.81;;;15.50;100.00
48796;BME280;34607;48.520;-1.330;2022-10-31T12:35:25;99432.09;;;15.52;100.00
48796;BME280;34607;48.520;-1.330;2022-10-31T12:41:08;99426.88;;;15.52;100.00
48796;BME280;34607;48.520;-1.330;2022-10-31T12:43:46;99423.38;;;15.52;100.00
48796;BME280;34607;48.520;-1.330;2022-10-31T12:46:24;99420.75;;;15.53;100.00
48796;BME280;34607;48.520;-1.330;2022-10-31T12:49:09;99394.91;;;15.41;100.00
48796;BME280;34607;48.520;-1.330;2022-10-31T12:51:46;99413.72;;;15.57;100.00
48796;BME280;34607;48.520;-1.330;2022-10-31T12:54:25;99405.88;;;15.59;100.00
48796;BME280;34607;48.520;-1.330;2022-10-31T12:57:05;99404.97;;;15.60;100.00
48796;BME280;34607;48.520;-1.330;2022-10-31T12:59:39;99397.97;;;15.62;100.00
48796;BME280;34607;48.520;-1.330;2022-10-31T13:02:18;99376.34;;;15.57;100.00
48796;BME280;34607;48.520;-1.330;2022-10-31T13:04:49;99366.66;;;15.62;100.00
48796;BME280;34607;48.520;-1.330;2022-10-31T13:07:21;99384.72;;;15.72;100.00
48796;BME280;34607;48.520;-1.330;2022-10-31T13:09:56;99365.59;;;15.72;100.00
48796;BME280;34607;48.520;-1.330;2022-10-31T13:12:28;99366.41;;;15.74;100.00
48796;BME280;34607;48.520;-1.330;2022-10-31T13:14:58;99353.38;;;15.72;100.00
48796;BME280;34607;48.520;-1.330;2022-10-31T13:17:30;99353.50;;;15.68;100.00
48796;BME280;34607;48.520;-1.330;2022-10-31T13:20:13;99350.81;;;15.71;100.00
48796;BME280;34607;48.520;-1.330;2022-10-31T13:22:42;99344.72;;;15.72;100.00
48796;BME280;34607;48.520;-1.330;2022-10-31T13:25:14;99344.56;;;15.80;100.00
48796;BME280;34607;48.520;-1.330;2022-10-31T13:27:47;99330.78;;;15.73;100.00
48796;BME280;34607;48.520;-1.330;2022-10-31T13:30:18;99334.78;;;15.89;100.00
48796;BME280;34607;48.520;-1.330;2022-10-31T13:32:50;99318.97;;;15.97;100.00
48796;BME280;34607;48.520;-1.330;2022-10-31T13:35:23;99315.38;;;16.01;100.00
48796;BME280;34607;48.520;-1.330;2022-10-31T13:38:00;99323.03;;;16.09;100.00
48796;BME280;34607;48.520;-1.330;2022-10-31T13:40:36;99305.75;;;16.03;100.00
48796;BME280;34607;48.520;-1.330;2022-10-31T13:43:17;99308.94;;;16.18;100.00
48796;BME280;34607;48.520;-1.330;2022-10-31T13:45:50;99307.06;;;16.23;100.00
48796;BME280;34607;48.520;-1.330;2022-10-31T13:48:32;99302.69;;;16.23;100.00
48796;BME280;34607;48.520;-1.330;2022-10-31T13:51:03;99303.50;;;16.25;100.00
48796;BME280;34607;48.520;-1.330;2022-10-31T13:53:43;99302.63;;;16.26;100.00
48796;BME280;34607;48.520;-1.330;2022-10-31T13:56:19;99304.22;;;16.32;100.00
48796;BME280;34607;48.520;-1.330;2022-10-31T13:59:05;99291.84;;;16.40;100.00
48796;BME280;34607;48.520;-1.330;2022-10-31T14:01:47;99278.78;;;16.40;100.00
48796;BME280;34607;48.520;-1.330;2022-10-31T14:04:16;99277.84;;;16.41;100.00
48796;BME280;34607;48.520;-1.330;2022-10-31T14:06:52;99286.44;;;16.46;100.00
48796;BME280;34607;48.520;-1.330;2022-10-31T14:09:31;99274.41;;;16.41;100.00
48796;BME280;34607;48.520;-1.330;2022-10-31T14:12:03;99279.53;;;16.45;100.00
48796;BME280;34607;48.520;-1.330;2022-10-31T14:14:40;99257.06;;;16.38;100.00
48796;BME280;34607;48.520;-1.330;2022-10-31T14:17:17;99272.47;;;16.49;100.00
48796;BME280;34607;48.520;-1.330;2022-10-31T14:19:59;99267.19;;;16.51;100.00
48796;BME280;34607;48.520;-1.330;2022-10-31T14:22:30;99267.16;;;16.52;100.00
48796;BME280;34607;48.520;-1.330;2022-10-31T14:24:57;99261.78;;;16.57;100.00
48796;BME280;34607;48.520;-1.330;2022-10-31T14:27:43;99252.91;;;16.64;100.00
48796;BME280;34607;48.520;-1.330;2022-10-31T14:30:20;99243.47;;;16.58;100.00
48796;BME280;34607;48.520;-1.330;2022-10-31T14:32:53;99256.41;;;16.63;100.00
48796;BME280;34607;48.520;-1.330;2022-10-31T14:35:25;99229.53;;;16.58;100.00
48796;BME280;34607;48.520;-1.330;2022-10-31T14:38:11;99235.50;;;16.63;100.00
48796;BME280;34607;48.520;-1.330;2022-10-31T14:40:52;99209.44;;;16.60;100.00
48796;BME280;34607;48.520;-1.330;2022-10-31T14:43:42;99214.47;;;16.67;100.00
48796;BME280;34607;48.520;-1.330;2022-10-31T14:46:18;99191.13;;;16.61;100.00
48796;BME280;34607;48.520;-1.330;2022-10-31T14:49:04;99207.50;;;16.68;100.00
48796;BME280;34607;48.520;-1.330;2022-10-31T14:51:36;99197.97;;;16.65;100.00
48796;BME280;34607;48.520;-1.330;2022-10-31T14:54:06;99199.56;;;16.71;100.00
48796;BME280;34607;48.520;-1.330;2022-10-31T14:56:46;99178.75;;;16.68;100.00
48796;BME280;34607;48.520;-1.330;2022-10-31T14:59:16;99195.28;;;16.69;100.00
48796;BME280;34607;48.520;-1.330;2022-10-31T15:01:55;99187.28;;;16.75;100.00
48796;BME280;34607;48.520;-1.330;2022-10-31T15:04:25;99185.59;;;16.72;100.00
48796;BME280;34607;48.520;-1.330;2022-10-31T15:06:59;99185.72;;;16.67;100.00
48796;BME280;34607;48.520;-1.330;2022-10-31T15:09:30;99176.97;;;16.69;100.00
48796;BME280;34607;48.520;-1.330;2022-10-31T15:11:58;99178.69;;;16.70;100.00
48796;BME280;34607;48.520;-1.330;2022-10-31T15:14:28;99180.41;;;16.71;100.00
48796;BME280;34607;48.520;-1.330;2022-10-31T15:16:58;99154.69;;;16.55;100.00
48796;BME280;34607;48.520;-1.330;2022-10-31T15:19:30;99171.94;;;16.62;100.00
48796;BME280;34607;48.520;-1.330;2022-10-31T15:22:00;99159.81;;;16.58;100.00
48796;BME280;34607;48.520;-1.330;2022-10-31T15:24:30;99151.47;;;16.45;100.00
48796;BME280;34607;48.520;-1.330;2022-10-31T15:26:59;99168.88;;;16.45;100.00
48796;BME280;34607;48.520;-1.330;2022-10-31T15:29:27;99148.16;;;16.39;100.00
48796;BME280;34607;48.520;-1.330;2022-10-31T15:31:56;99169.13;;;16.37;100.00
48796;BME280;34607;48.520;-1.330;2022-10-31T15:34:29;99144.81;;;16.34;100.00
48796;BME280;34607;48.520;-1.330;2022-10-31T15:36:59;99151.59;;;16.41;100.00
48796;BME280;34607;48.520;-1.330;2022-10-31T15:39:26;99155.19;;;16.37;100.00
48796;BME280;34607;48.520;-1.330;2022-10-31T15:41:54;99143.75;;;16.41;100.00
48796;BME280;34607;48.520;-1.330;2022-10-31T15:44:24;99148.97;;;16.41;100.00
48796;BME280;34607;48.520;-1.330;2022-10-31T15:46:55;99152.44;;;16.41;100.00
48796;BME280;34607;48.520;-1.330;2022-10-31T15:49:39;99137.09;;;16.29;100.00
48796;BME280;34607;48.520;-1.330;2022-10-31T15:52:11;99157.88;;;16.34;100.00
48796;BME280;34607;48.520;-1.330;2022-10-31T15:54:45;99142.41;;;16.26;100.00
48796;BME280;34607;48.520;-1.330;2022-10-31T15:57:13;99106.50;;;16.01;100.00
48796;BME280;34607;48.520;-1.330;2022-10-31T15:59:42;99120.34;;;16.03;100.00
48796;BME280;34607;48.520;-1.330;2022-10-31T16:02:13;99136.72;;;16.10;100.00
48796;BME280;34607;48.520;-1.330;2022-10-31T16:04:50;99124.69;;;16.04;100.00
48796;BME280;34607;48.520;-1.330;2022-10-31T16:07:18;99129.09;;;16.02;100.00
48796;BME280;34607;48.520;-1.330;2022-10-31T16:09:54;99142.00;;;16.08;100.00
48796;BME280;34607;48.520;-1.330;2022-10-31T16:12:22;99156.88;;;16.05;100.00
48796;BME280;34607;48.520;-1.330;2022-10-31T16:14:50;99142.41;;;15.91;100.00
48796;BME280;34607;48.520;-1.330;2022-10-31T16:17:20;99144.13;;;15.93;100.00
48796;BME280;34607;48.520;-1.330;2022-10-31T16:19:52;99137.44;;;15.82;100.00
48796;BME280;34607;48.520;-1.330;2022-10-31T16:22:24;99143.38;;;15.89;100.00
48796;BME280;34607;48.520;-1.330;2022-10-31T16:24:55;99147.84;;;15.84;100.00
48796;BME280;34607;48.520;-1.330;2022-10-31T16:27:24;99146.97;;;15.83;100.00
48796;BME280;34607;48.520;-1.330;2022-10-31T16:29:54;99153.91;;;15.84;100.00
48796;BME280;34607;48.520;-1.330;2022-10-31T16:32:34;99148.88;;;15.77;100.00
48796;BME280;34607;48.520;-1.330;2022-10-31T16:35:23;99140.34;;;15.68;100.00
48796;BME280;34607;48.520;-1.330;2022-10-31T16:37:51;99134.22;;;15.69;100.00
48796;BME280;34607;48.520;-1.330;2022-10-31T16:40:18;99105.88;;;15.54;100.00
48796;BME280;34607;48.520;-1.330;2022-10-31T16:42:46;99119.00;;;15.52;100.00
48796;BME280;34607;48.520;-1.330;2022-10-31T16:45:16;99105.97;;;15.51;100.00
48796;BME280;34607;48.520;-1.330;2022-10-31T16:47:44;99112.72;;;15.60;100.00
48796;BME280;34607;48.520;-1.330;2022-10-31T16:50:16;99106.78;;;15.53;100.00
48796;BME280;34607;48.520;-1.330;2022-10-31T16:52:45;99113.91;;;15.46;100.00
48796;BME280;34607;48.520;-1.330;2022-10-31T16:55:13;99120.97;;;15.41;100.00
48796;BME280;34607;48.520;-1.330;2022-10-31T16:57:42;99108.16;;;15.32;100.00
48796;BME280;34607;48.520;-1.330;2022-10-31T17:00:15;99113.31;;;15.33;100.00
48796;BME280;34607;48.520;-1.330;2022-10-31T17:02:43;99115.19;;;15.28;100.00
48796;BME280;34607;48.520;-1.330;2022-10-31T17:05:12;99110.84;;;15.29;100.00
48796;BME280;34607;48.520;-1.330;2022-10-31T17:07:41;99110.16;;;15.21;100.00
48796;BME280;34607;48.520;-1.330;2022-10-31T17:10:11;99108.44;;;15.18;100.00
48796;BME280;34607;48.520;-1.330;2022-10-31T17:12:43;99116.34;;;15.16;100.00
48796;BME280;34607;48.520;-1.330;2022-10-31T17:15:16;99120.81;;;15.11;100.00
48796;BME280;34607;48.520;-1.330;2022-10-31T17:17:44;99108.78;;;15.03;100.00
48796;BME280;34607;48.520;-1.330;2022-10-31T17:20:17;99110.56;;;15.02;100.00
48796;BME280;34607;48.520;-1.330;2022-10-31T17:22:45;99084.78;;;14.88;100.00
48796;BME280;34607;48.520;-1.330;2022-10-31T17:25:15;99123.66;;;14.99;100.00
48796;BME280;34607;48.520;-1.330;2022-10-31T17:27:42;99110.72;;;14.94;100.00
48796;BME280;34607;48.520;-1.330;2022-10-31T17:30:11;99096.94;;;14.89;100.00
48796;BME280;34607;48.520;-1.330;2022-10-31T17:32:39;99115.00;;;14.97;100.00
48796;BME280;34607;48.520;-1.330;2022-10-31T17:35:06;99117.53;;;15.02;100.00
48796;BME280;34607;48.520;-1.330;2022-10-31T17:37:34;99100.38;;;14.91;100.00
48796;BME280;34607;48.520;-1.330;2022-10-31T17:40:02;99118.44;;;14.99;100.00
48796;BME280;34607;48.520;-1.330;2022-10-31T17:42:30;99121.91;;;15.00;100.00
48796;BME280;34607;48.520;-1.330;2022-10-31T17:44:57;99124.38;;;15.06;100.00
48796;BME280;34607;48.520;-1.330;2022-10-31T17:47:25;99119.13;;;15.07;100.00
48796;BME280;34607;48.520;-1.330;2022-10-31T17:49:52;99105.53;;;14.94;100.00
48796;BME280;34607;48.520;-1.330;2022-10-31T17:52:19;99115.66;;;15.08;100.00
48796;BME280;34607;48.520;-1.330;2022-10-31T17:54:46;99118.31;;;15.05;100.00
48796;BME280;34607;48.520;-1.330;2022-10-31T17:57:13;99118.34;;;15.04;100.00
48796;BME280;34607;48.520;-1.330;2022-10-31T17:59:42;99097.66;;;14.96;100.00
48796;BME280;34607;48.520;-1.330;2022-10-31T18:02:09;99070.09;;;14.86;100.00
48796;BME280;34607;48.520;-1.330;2022-10-31T18:04:37;99099.28;;;15.02;100.00
48796;BME280;34607;48.520;-1.330;2022-10-31T18:07:05;99103.72;;;14.96;100.00
48796;BME280;34607;48.520;-1.330;2022-10-31T18:09:32;99126.34;;;14.96;100.00
48796;BME280;34607;48.520;-1.330;2022-10-31T18:11:59;99105.94;;;14.74;100.00
48796;BME280;34607;48.520;-1.330;2022-10-31T18:14:26;99116.34;;;14.74;100.00
48796;BME280;34607;48.520;-1.330;2022-10-31T18:16:55;99094.06;;;14.59;100.00
48796;BME280;34607;48.520;-1.330;2022-10-31T18:19:22;99094.94;;;14.60;100.00
48796;BME280;34607;48.520;-1.330;2022-10-31T18:21:49;99128.53;;;14.74;100.00
48796;BME280;34607;48.520;-1.330;2022-10-31T18:24:16;99126.00;;;14.69;100.00
48796;BME280;34607;48.520;-1.330;2022-10-31T18:26:43;99120.91;;;14.63;100.00
48796;BME280;34607;48.520;-1.330;2022-10-31T18:29:11;99139.06;;;14.68;100.00
48796;BME280;34607;48.520;-1.330;2022-10-31T18:31:38;99135.66;;;14.66;100.00
48796;BME280;34607;48.520;-1.330;2022-10-31T18:34:06;99133.84;;;14.68;100.00
48796;BME280;34607;48.520;-1.330;2022-10-31T18:36:33;99140.09;;;14.60;100.00
48796;BME280;34607;48.520;-1.330;2022-10-31T18:39:01;99144.47;;;14.58;100.00
48796;BME280;34607;48.520;-1.330;2022-10-31T18:41:28;99109.19;;;14.40;100.00
48796;BME280;34607;48.520;-1.330;2022-10-31T18:43:56;99131.44;;;14.57;100.00
48796;BME280;34607;48.520;-1.330;2022-10-31T18:46:24;99140.13;;;14.59;100.00
48796;BME280;34607;48.520;-1.330;2022-10-31T18:48:52;99123.75;;;14.49;100.00
48796;BME280;34607;48.520;-1.330;2022-10-31T18:51:20;99140.13;;;14.56;100.00
48796;BME280;34607;48.520;-1.330;2022-10-31T18:53:49;99128.94;;;14.51;100.00
48796;BME280;34607;48.520;-1.330;2022-10-31T18:56:17;99114.41;;;14.39;100.00
48796;BME280;34607;48.520;-1.330;2022-10-31T18:58:44;99139.38;;;14.51;100.00
48796;BME280;34607;48.520;-1.330;2022-10-31T19:01:12;99152.53;;;14.43;100.00
48796;BME280;34607;48.520;-1.330;2022-10-31T19:03:40;99149.91;;;14.45;100.00
48796;BME280;34607;48.520;-1.330;2022-10-31T19:06:07;99152.66;;;14.37;100.00
48796;BME280;34607;48.520;-1.330;2022-10-31T19:08:37;99157.78;;;14.41;100.00
48796;BME280;34607;48.520;-1.330;2022-10-31T19:11:05;99157.72;;;14.45;100.00
48796;BME280;34607;48.520;-1.330;2022-10-31T19:13:33;99154.25;;;14.44;100.00
48796;BME280;34607;48.520;-1.330;2022-10-31T19:16:04;99148.25;;;14.40;100.00
48796;BME280;34607;48.520;-1.330;2022-10-31T19:18:32;99171.59;;;14.47;100.00
48796;BME280;34607;48.520;-1.330;2022-10-31T19:21:04;99190.72;;;14.42;100.00
48796;BME280;34607;48.520;-1.330;2022-10-31T19:23:31;99193.38;;;14.41;100.00
48796;BME280;34607;48.520;-1.330;2022-10-31T19:25:59;99189.00;;;14.45;100.00
48796;BME280;34607;48.520;-1.330;2022-10-31T19:28:28;99215.09;;;14.40;100.00
48796;BME280;34607;48.520;-1.330;2022-10-31T19:30:56;99215.13;;;14.38;100.00
48796;BME280;34607;48.520;-1.330;2022-10-31T19:33:24;99228.97;;;14.40;100.00
48796;BME280;34607;48.520;-1.330;2022-10-31T19:35:57;99216.25;;;14.22;100.00
48796;BME280;34607;48.520;-1.330;2022-10-31T19:38:25;99237.06;;;14.25;100.00
48796;BME280;34607;48.520;-1.330;2022-10-31T19:40:55;99248.25;;;14.30;100.00
48796;BME280;34607;48.520;-1.330;2022-10-31T19:43:25;99233.88;;;14.08;100.00
48796;BME280;34607;48.520;-1.330;2022-10-31T19:45:53;99263.06;;;14.27;100.00
48796;BME280;34607;48.520;-1.330;2022-10-31T19:48:21;99270.88;;;14.27;100.00
48796;BME280;34607;48.520;-1.330;2022-10-31T19:50:48;99281.28;;;14.27;100.00
48796;BME280;34607;48.520;-1.330;2022-10-31T19:53:15;99274.69;;;14.05;100.00
48796;BME280;34607;48.520;-1.330;2022-10-31T19:55:42;99295.34;;;14.16;100.00
48796;BME280;34607;48.520;-1.330;2022-10-31T19:58:09;99316.06;;;14.24;100.00
48796;BME280;34607;48.520;-1.330;2022-10-31T20:00:38;99276.47;;;14.03;100.00
48796;BME280;34607;48.520;-1.330;2022-10-31T20:03:05;99311.72;;;14.23;100.00
48796;BME280;34607;48.520;-1.330;2022-10-31T20:05:32;99294.53;;;14.13;100.00
48796;BME280;34607;48.520;-1.330;2022-10-31T20:07:59;99309.03;;;14.29;100.00
48796;BME280;34607;48.520;-1.330;2022-10-31T20:10:27;99322.97;;;14.27;100.00
48796;BME280;34607;48.520;-1.330;2022-10-31T20:12:54;99328.13;;;14.30;100.00
48796;BME280;34607;48.520;-1.330;2022-10-31T20:15:21;99333.41;;;14.23;100.00
48796;BME280;34607;48.520;-1.330;2022-10-31T20:17:49;99329.97;;;14.23;100.00
48796;BME280;34607;48.520;-1.330;2022-10-31T20:20:16;99334.28;;;14.24;100.00
48796;BME280;34607;48.520;-1.330;2022-10-31T20:22:43;99343.16;;;14.12;100.00
48796;BME280;34607;48.520;-1.330;2022-10-31T20:25:11;99332.94;;;13.97;100.00
48796;BME280;34607;48.520;-1.330;2022-10-31T20:27:38;99355.41;;;14.02;100.00
